sensor_id;sensor_type;location;lat;lon;timestamp;P1;durP1;ratioP1;P2;durP2;ratioP2
78169;SDS011;67412;49.892;14.490;2023-06-22T00:01:55;7.20;;;2.85;;
78169;SDS011;67412;49.892;14.490;2023-06-22T00:04:20;8.63;;;2.85;;
78169;SDS011;67412;49.892;14.490;2023-06-22T00:06:45;8.05;;;3.17;;
78169;SDS011;67412;49.892;14.490;2023-06-22T00:09:11;7.20;;;2.78;;
78169;SDS011;67412;49.892;14.490;2023-06-22T00:11:36;6.18;;;2.63;;
78169;SDS011;67412;49.892;14.490;2023-06-22T00:14:03;7.30;;;2.67;;
78169;SDS011;67412;49.892;14.490;2023-06-22T00:16:29;6.78;;;2.80;;
78169;SDS011;67412;49.892;14.490;2023-06-22T00:18:55;8.82;;;3.00;;
78169;SDS011;67412;49.892;14.490;2023-06-22T00:21:20;8.23;;;3.10;;
78169;SDS011;67412;49.892;14.490;2023-06-22T00:23:46;5.90;;;2.40;;
78169;SDS011;67412;49.892;14.490;2023-06-22T00:26:12;9.07;;;3.30;;
78169;SDS011;67412;49.892;14.490;2023-06-22T00:28:38;8.35;;;3.17;;
78169;SDS011;67412;49.892;14.490;2023-06-22T00:31:03;7.53;;;3.05;;
78169;SDS011;67412;49.892;14.490;2023-06-22T00:33:28;9.13;;;2.90;;
78169;SDS011;67412;49.892;14.490;2023-06-22T00:35:54;7.50;;;3.22;;
78169;SDS011;67412;49.892;14.490;2023-06-22T00:38:19;8.85;;;3.53;;
78169;SDS011;67412;49.892;14.490;2023-06-22T00:40:45;7.25;;;3.08;;
78169;SDS011;67412;49.892;14.490;2023-06-22T00:43:11;7.63;;;3.17;;
78169;SDS011;67412;49.892;14.490;2023-06-22T00:45:36;6.93;;;2.67;;
78169;SDS011;67412;49.892;14.490;2023-06-22T00:48:02;7.78;;;2.88;;
78169;SDS011;67412;49.892;14.490;2023-06-22T00:50:31;8.18;;;2.70;;
78169;SDS011;67412;49.892;14.490;2023-06-22T00:52:59;7.68;;;2.67;;
78169;SDS011;67412;49.892;14.490;2023-06-22T00:55:29;9.32;;;2.80;;
78169;SDS011;67412;49.892;14.490;2023-06-22T00:57:55;7.22;;;2.50;;
78169;SDS011;67412;49.892;14.490;2023-06-22T01:00:21;7.70;;;2.90;;
78169;SDS011;67412;49.892;14.490;2023-06-22T01:02:49;8.57;;;3.17;;
78169;SDS011;67412;49.892;14.490;2023-06-22T01:05:18;9.55;;;3.15;;
78169;SDS011;67412;49.892;14.490;2023-06-22T01:10:22;8.38;;;3.17;;
78169;SDS011;67412;49.892;14.490;2023-06-22T01:12:53;8.60;;;3.30;;
78169;SDS011;67412;49.892;14.490;2023-06-22T01:15:26;6.65;;;3.00;;
78169;SDS011;67412;49.892;14.490;2023-06-22T01:17:56;7.20;;;2.83;;
78169;SDS011;67412;49.892;14.490;2023-06-22T01:20:23;7.18;;;2.80;;
78169;SDS011;67412;49.892;14.490;2023-06-22T01:22:54;7.75;;;2.90;;
78169;SDS011;67412;49.892;14.490;2023-06-22T01:25:36;7.55;;;2.97;;
78169;SDS011;67412;49.892;14.490;2023-06-22T01:28:15;9.45;;;2.70;;
78169;SDS011;67412;49.892;14.490;2023-06-22T01:30:47;11.18;;;4.40;;
78169;SDS011;67412;49.892;14.490;2023-06-22T01:33:14;8.32;;;3.50;;
78169;SDS011;67412;49.892;14.490;2023-06-22T01:35:41;7.80;;;3.47;;
78169;SDS011;67412;49.892;14.490;2023-06-22T01:38:08;8.60;;;3.42;;
78169;SDS011;67412;49.892;14.490;2023-06-22T01:40:34;8.23;;;3.22;;
78169;SDS011;67412;49.892;14.490;2023-06-22T01:43:01;8.52;;;3.10;;
78169;SDS011;67412;49.892;14.490;2023-06-22T01:45:28;10.55;;;3.60;;
78169;SDS011;67412;49.892;14.490;2023-06-22T01:47:53;8.07;;;3.17;;
78169;SDS011;67412;49.892;14.490;2023-06-22T01:50:20;29.15;;;4.47;;
78169;SDS011;67412;49.892;14.490;2023-06-22T01:52:46;8.00;;;3.20;;
78169;SDS011;67412;49.892;14.490;2023-06-22T01:55:11;16.27;;;4.15;;
78169;SDS011;67412;49.892;14.490;2023-06-22T01:57:36;9.02;;;3.15;;
78169;SDS011;67412;49.892;14.490;2023-06-22T02:00:04;11.30;;;3.60;;
78169;SDS011;67412;49.892;14.490;2023-06-22T02:02:33;22.23;;;4.15;;
78169;SDS011;67412;49.892;14.490;2023-06-22T02:05:07;27.75;;;4.07;;
78169;SDS011;67412;49.892;14.490;2023-06-22T02:07:38;35.40;;;4.60;;
78169;SDS011;67412;49.892;14.490;2023-06-22T02:10:09;42.78;;;6.13;;
78169;SDS011;67412;49.892;14.490;2023-06-22T02:12:38;31.48;;;4.20;;
78169;SDS011;67412;49.892;14.490;2023-06-22T02:15:07;40.88;;;4.22;;
78169;SDS011;67412;49.892;14.490;2023-06-22T02:17:33;31.58;;;4.50;;
78169;SDS011;67412;49.892;14.490;2023-06-22T02:20:00;45.92;;;5.15;;
78169;SDS011;67412;49.892;14.490;2023-06-22T02:22:28;41.90;;;5.13;;
78169;SDS011;67412;49.892;14.490;2023-06-22T02:24:54;34.85;;;4.30;;
78169;SDS011;67412;49.892;14.490;2023-06-22T02:27:19;34.00;;;4.10;;
78169;SDS011;67412;49.892;14.490;2023-06-22T02:29:44;34.70;;;4.60;;
78169;SDS011;67412;49.892;14.490;2023-06-22T02:32:10;38.90;;;3.67;;
78169;SDS011;67412;49.892;14.490;2023-06-22T02:34:35;35.25;;;4.18;;
78169;SDS011;67412;49.892;14.490;2023-06-22T02:37:01;29.55;;;3.53;;
78169;SDS011;67412;49.892;14.490;2023-06-22T02:39:27;25.52;;;3.20;;
78169;SDS011;67412;49.892;14.490;2023-06-22T02:41:53;20.63;;;3.13;;
78169;SDS011;67412;49.892;14.490;2023-06-22T02:44:19;13.52;;;2.47;;
78169;SDS011;67412;49.892;14.490;2023-06-22T02:46:45;12.25;;;2.75;;
78169;SDS011;67412;49.892;14.490;2023-06-22T02:49:12;15.80;;;2.60;;
78169;SDS011;67412;49.892;14.490;2023-06-22T02:51:38;11.48;;;2.40;;
78169;SDS011;67412;49.892;14.490;2023-06-22T02:54:10;7.40;;;2.30;;
78169;SDS011;67412;49.892;14.490;2023-06-22T02:56:35;8.27;;;2.03;;
78169;SDS011;67412;49.892;14.490;2023-06-22T02:59:01;5.60;;;1.80;;
78169;SDS011;67412;49.892;14.490;2023-06-22T03:01:28;6.68;;;2.00;;
78169;SDS011;67412;49.892;14.490;2023-06-22T03:03:55;5.82;;;1.67;;
78169;SDS011;67412;49.892;14.490;2023-06-22T03:06:21;3.92;;;1.70;;
78169;SDS011;67412;49.892;14.490;2023-06-22T03:08:56;4.55;;;1.75;;
78169;SDS011;67412;49.892;14.490;2023-06-22T03:11:23;4.53;;;1.95;;
78169;SDS011;67412;49.892;14.490;2023-06-22T03:13:49;4.05;;;1.70;;
78169;SDS011;67412;49.892;14.490;2023-06-22T03:16:14;5.38;;;1.80;;
78169;SDS011;67412;49.892;14.490;2023-06-22T03:18:39;3.83;;;1.63;;
78169;SDS011;67412;49.892;14.490;2023-06-22T03:21:05;3.75;;;1.80;;
78169;SDS011;67412;49.892;14.490;2023-06-22T03:23:30;3.80;;;1.58;;
78169;SDS011;67412;49.892;14.490;2023-06-22T03:25:56;5.72;;;2.20;;
78169;SDS011;67412;49.892;14.490;2023-06-22T03:28:21;4.70;;;2.17;;
78169;SDS011;67412;49.892;14.490;2023-06-22T03:30:47;7.20;;;2.30;;
78169;SDS011;67412;49.892;14.490;2023-06-22T03:33:12;6.80;;;2.33;;
78169;SDS011;67412;49.892;14.490;2023-06-22T03:35:37;6.70;;;2.30;;
78169;SDS011;67412;49.892;14.490;2023-06-22T03:38:03;5.63;;;2.33;;
78169;SDS011;67412;49.892;14.490;2023-06-22T03:40:31;8.57;;;2.95;;
78169;SDS011;67412;49.892;14.490;2023-06-22T03:42:56;7.22;;;2.72;;
78169;SDS011;67412;49.892;14.490;2023-06-22T03:45:21;20.40;;;3.28;;
78169;SDS011;67412;49.892;14.490;2023-06-22T03:47:46;23.63;;;3.42;;
78169;SDS011;67412;49.892;14.490;2023-06-22T03:50:12;15.55;;;2.83;;
78169;SDS011;67412;49.892;14.490;2023-06-22T03:52:38;25.65;;;3.80;;
78169;SDS011;67412;49.892;14.490;2023-06-22T03:55:05;26.60;;;3.30;;
78169;SDS011;67412;49.892;14.490;2023-06-22T03:57:31;16.30;;;3.30;;
78169;SDS011;67412;49.892;14.490;2023-06-22T03:59:56;9.35;;;2.65;;
78169;SDS011;67412;49.892;14.490;2023-06-22T04:02:23;40.65;;;4.80;;
78169;SDS011;67412;49.892;14.490;2023-06-22T04:04:48;33.42;;;3.50;;
78169;SDS011;67412;49.892;14.490;2023-06-22T04:07:13;25.48;;;3.35;;
78169;SDS011;67412;49.892;14.490;2023-06-22T04:09:39;22.75;;;3.40;;
78169;SDS011;67412;49.892;14.490;2023-06-22T04:12:04;12.32;;;2.80;;
78169;SDS011;67412;49.892;14.490;2023-06-22T04:14:30;7.15;;;2.70;;
78169;SDS011;67412;49.892;14.490;2023-06-22T04:16:55;8.65;;;3.03;;
78169;SDS011;67412;49.892;14.490;2023-06-22T04:19:20;7.15;;;2.80;;
78169;SDS011;67412;49.892;14.490;2023-06-22T04:21:46;7.60;;;3.10;;
78169;SDS011;67412;49.892;14.490;2023-06-22T04:24:13;8.80;;;3.13;;
78169;SDS011;67412;49.892;14.490;2023-06-22T04:26:39;11.40;;;3.30;;
78169;SDS011;67412;49.892;14.490;2023-06-22T04:29:06;10.30;;;3.00;;
78169;SDS011;67412;49.892;14.490;2023-06-22T04:31:33;10.38;;;2.88;;
78169;SDS011;67412;49.892;14.490;2023-06-22T04:34:03;7.95;;;3.25;;
78169;SDS011;67412;49.892;14.490;2023-06-22T04:36:33;5.55;;;2.20;;
78169;SDS011;67412;49.892;14.490;2023-06-22T04:39:10;6.72;;;2.60;;
78169;SDS011;67412;49.892;14.490;2023-06-22T04:41:40;11.40;;;3.40;;
78169;SDS011;67412;49.892;14.490;2023-06-22T04:44:09;13.80;;;3.25;;
78169;SDS011;67412;49.892;14.490;2023-06-22T04:46:35;11.65;;;3.45;;
78169;SDS011;67412;49.892;14.490;2023-06-22T04:49:06;10.13;;;3.10;;
78169;SDS011;67412;49.892;14.490;2023-06-22T04:51:41;31.35;;;3.90;;
78169;SDS011;67412;49.892;14.490;2023-06-22T04:54:07;10.43;;;2.58;;
78169;SDS011;67412;49.892;14.490;2023-06-22T04:56:34;33.17;;;3.85;;
78169;SDS011;67412;49.892;14.490;2023-06-22T04:58:59;36.13;;;4.13;;
78169;SDS011;67412;49.892;14.490;2023-06-22T05:01:25;36.08;;;3.78;;
78169;SDS011;67412;49.892;14.490;2023-06-22T05:03:51;16.10;;;2.80;;
78169;SDS011;67412;49.892;14.490;2023-06-22T05:06:20;36.97;;;3.60;;
78169;SDS011;67412;49.892;14.490;2023-06-22T05:08:55;35.25;;;4.63;;
78169;SDS011;67412;49.892;14.490;2023-06-22T05:11:22;47.42;;;4.50;;
78169;SDS011;67412;49.892;14.490;2023-06-22T05:13:51;18.35;;;2.95;;
78169;SDS011;67412;49.892;14.490;2023-06-22T05:16:17;38.00;;;3.92;;
78169;SDS011;67412;49.892;14.490;2023-06-22T05:18:49;21.92;;;3.40;;
78169;SDS011;67412;49.892;14.490;2023-06-22T05:21:20;16.83;;;3.50;;
78169;SDS011;67412;49.892;14.490;2023-06-22T05:23:46;23.35;;;3.78;;
78169;SDS011;67412;49.892;14.490;2023-06-22T05:26:12;14.82;;;3.28;;
78169;SDS011;67412;49.892;14.490;2023-06-22T05:28:37;35.90;;;4.47;;
78169;SDS011;67412;49.892;14.490;2023-06-22T05:31:02;27.33;;;4.20;;
78169;SDS011;67412;49.892;14.490;2023-06-22T05:33:28;15.82;;;3.78;;
78169;SDS011;67412;49.892;14.490;2023-06-22T05:35:54;15.60;;;3.28;;
78169;SDS011;67412;49.892;14.490;2023-06-22T05:38:19;12.45;;;3.60;;
78169;SDS011;67412;49.892;14.490;2023-06-22T05:40:45;13.65;;;3.85;;
78169;SDS011;67412;49.892;14.490;2023-06-22T05:43:10;12.07;;;3.60;;
78169;SDS011;67412;49.892;14.490;2023-06-22T05:45:35;11.35;;;4.28;;
78169;SDS011;67412;49.892;14.490;2023-06-22T05:48:00;8.52;;;4.05;;
78169;SDS011;67412;49.892;14.490;2023-06-22T05:50:26;9.05;;;3.50;;
78169;SDS011;67412;49.892;14.490;2023-06-22T05:52:52;10.50;;;4.25;;
78169;SDS011;67412;49.892;14.490;2023-06-22T05:55:17;11.13;;;4.38;;
78169;SDS011;67412;49.892;14.490;2023-06-22T05:57:43;8.25;;;3.65;;
78169;SDS011;67412;49.892;14.490;2023-06-22T06:00:09;8.55;;;3.42;;
78169;SDS011;67412;49.892;14.490;2023-06-22T06:02:36;7.97;;;3.97;;
78169;SDS011;67412;49.892;14.490;2023-06-22T06:05:02;7.78;;;3.80;;
78169;SDS011;67412;49.892;14.490;2023-06-22T06:07:28;8.07;;;3.50;;
78169;SDS011;67412;49.892;14.490;2023-06-22T06:09:54;8.52;;;3.67;;
78169;SDS011;67412;49.892;14.490;2023-06-22T06:12:19;8.07;;;3.60;;
78169;SDS011;67412;49.892;14.490;2023-06-22T06:14:45;8.95;;;3.80;;
78169;SDS011;67412;49.892;14.490;2023-06-22T06:17:10;10.18;;;4.85;;
78169;SDS011;67412;49.892;14.490;2023-06-22T06:19:35;9.63;;;4.35;;
78169;SDS011;67412;49.892;14.490;2023-06-22T06:22:01;9.70;;;4.93;;
78169;SDS011;67412;49.892;14.490;2023-06-22T06:24:26;9.38;;;4.97;;
78169;SDS011;67412;49.892;14.490;2023-06-22T06:26:52;9.75;;;4.70;;
78169;SDS011;67412;49.892;14.490;2023-06-22T06:29:17;11.05;;;5.22;;
78169;SDS011;67412;49.892;14.490;2023-06-22T06:31:42;10.82;;;4.65;;
78169;SDS011;67412;49.892;14.490;2023-06-22T06:34:08;9.35;;;5.18;;
78169;SDS011;67412;49.892;14.490;2023-06-22T06:36:33;9.77;;;4.43;;
78169;SDS011;67412;49.892;14.490;2023-06-22T06:38:58;8.18;;;4.65;;
78169;SDS011;67412;49.892;14.490;2023-06-22T06:41:23;9.50;;;4.65;;
78169;SDS011;67412;49.892;14.490;2023-06-22T06:43:49;10.75;;;5.10;;
78169;SDS011;67412;49.892;14.490;2023-06-22T06:46:14;10.65;;;4.80;;
78169;SDS011;67412;49.892;14.490;2023-06-22T06:48:39;9.52;;;4.95;;
78169;SDS011;67412;49.892;14.490;2023-06-22T06:51:05;10.43;;;5.60;;
78169;SDS011;67412;49.892;14.490;2023-06-22T06:53:34;10.63;;;5.13;;
78169;SDS011;67412;49.892;14.490;2023-06-22T06:56:00;9.98;;;5.22;;
78169;SDS011;67412;49.892;14.490;2023-06-22T06:58:25;12.65;;;4.18;;
78169;SDS011;67412;49.892;14.490;2023-06-22T07:00:51;7.13;;;3.37;;
78169;SDS011;67412;49.892;14.490;2023-06-22T07:03:16;8.45;;;4.40;;
78169;SDS011;67412;49.892;14.490;2023-06-22T07:05:41;9.10;;;4.20;;
78169;SDS011;67412;49.892;14.490;2023-06-22T07:08:07;8.88;;;4.57;;
78169;SDS011;67412;49.892;14.490;2023-06-22T07:10:32;9.20;;;4.40;;
78169;SDS011;67412;49.892;14.490;2023-06-22T07:12:58;8.40;;;4.45;;
78169;SDS011;67412;49.892;14.490;2023-06-22T07:15:23;11.63;;;5.07;;
78169;SDS011;67412;49.892;14.490;2023-06-22T07:17:48;10.25;;;4.75;;
78169;SDS011;67412;49.892;14.490;2023-06-22T07:20:14;9.90;;;4.80;;
78169;SDS011;67412;49.892;14.490;2023-06-22T07:22:39;10.15;;;5.38;;
78169;SDS011;67412;49.892;14.490;2023-06-22T07:25:09;12.73;;;4.88;;
78169;SDS011;67412;49.892;14.490;2023-06-22T07:27:38;12.00;;;5.03;;
78169;SDS011;67412;49.892;14.490;2023-06-22T07:30:08;10.07;;;4.78;;
78169;SDS011;67412;49.892;14.490;2023-06-22T07:32:34;10.52;;;5.35;;
78169;SDS011;67412;49.892;14.490;2023-06-22T07:35:00;10.80;;;5.15;;
78169;SDS011;67412;49.892;14.490;2023-06-22T07:37:26;8.82;;;4.65;;
78169;SDS011;67412;49.892;14.490;2023-06-22T07:39:53;10.82;;;5.15;;
78169;SDS011;67412;49.892;14.490;2023-06-22T07:42:23;9.70;;;5.47;;
78169;SDS011;67412;49.892;14.490;2023-06-22T07:44:48;10.05;;;5.22;;
78169;SDS011;67412;49.892;14.490;2023-06-22T07:47:15;11.20;;;5.70;;
78169;SDS011;67412;49.892;14.490;2023-06-22T07:49:42;10.48;;;5.43;;
78169;SDS011;67412;49.892;14.490;2023-06-22T07:52:08;11.43;;;5.35;;
78169;SDS011;67412;49.892;14.490;2023-06-22T07:54:33;10.63;;;4.97;;
78169;SDS011;67412;49.892;14.490;2023-06-22T07:56:59;10.88;;;5.95;;
78169;SDS011;67412;49.892;14.490;2023-06-22T07:59:24;13.60;;;5.68;;
78169;SDS011;67412;49.892;14.490;2023-06-22T08:01:49;8.50;;;5.15;;
78169;SDS011;67412;49.892;14.490;2023-06-22T08:04:15;9.77;;;5.78;;
78169;SDS011;67412;49.892;14.490;2023-06-22T08:06:40;9.05;;;5.25;;
78169;SDS011;67412;49.892;14.490;2023-06-22T08:09:06;9.80;;;5.22;;
78169;SDS011;67412;49.892;14.490;2023-06-22T08:11:31;11.30;;;5.90;;
78169;SDS011;67412;49.892;14.490;2023-06-22T08:13:57;11.80;;;6.28;;
78169;SDS011;67412;49.892;14.490;2023-06-22T08:16:23;12.38;;;5.78;;
78169;SDS011;67412;49.892;14.490;2023-06-22T08:18:48;11.32;;;5.97;;
78169;SDS011;67412;49.892;14.490;2023-06-22T08:21:14;11.73;;;6.07;;
78169;SDS011;67412;49.892;14.490;2023-06-22T08:23:39;10.70;;;6.07;;
78169;SDS011;67412;49.892;14.490;2023-06-22T08:26:04;11.35;;;6.03;;
78169;SDS011;67412;49.892;14.490;2023-06-22T08:28:30;12.20;;;6.78;;
78169;SDS011;67412;49.892;14.490;2023-06-22T08:30:55;12.18;;;7.30;;
78169;SDS011;67412;49.892;14.490;2023-06-22T08:33:21;9.93;;;6.60;;
78169;SDS011;67412;49.892;14.490;2023-06-22T08:35:48;10.70;;;6.50;;
78169;SDS011;67412;49.892;14.490;2023-06-22T08:38:14;11.52;;;6.65;;
78169;SDS011;67412;49.892;14.490;2023-06-22T08:40:40;9.85;;;6.70;;
78169;SDS011;67412;49.892;14.490;2023-06-22T08:43:05;10.00;;;6.22;;
78169;SDS011;67412;49.892;14.490;2023-06-22T08:45:31;14.13;;;6.35;;
78169;SDS011;67412;49.892;14.490;2023-06-22T08:47:56;10.45;;;6.22;;
78169;SDS011;67412;49.892;14.490;2023-06-22T08:50:22;11.68;;;6.72;;
78169;SDS011;67412;49.892;14.490;2023-06-22T08:52:47;11.10;;;6.22;;
78169;SDS011;67412;49.892;14.490;2023-06-22T08:55:13;11.30;;;6.35;;
78169;SDS011;67412;49.892;14.490;2023-06-22T08:57:39;11.65;;;6.35;;
78169;SDS011;67412;49.892;14.490;2023-06-22T09:00:08;10.77;;;6.63;;
78169;SDS011;67412;49.892;14.490;2023-06-22T09:02:41;11.38;;;7.45;;
78169;SDS011;67412;49.892;14.490;2023-06-22T09:05:06;11.50;;;7.00;;
78169;SDS011;67412;49.892;14.490;2023-06-22T09:07:32;10.77;;;6.85;;
78169;SDS011;67412;49.892;14.490;2023-06-22T09:09:57;11.45;;;6.35;;
78169;SDS011;67412;49.892;14.490;2023-06-22T09:12:22;13.30;;;7.28;;
78169;SDS011;67412;49.892;14.490;2023-06-22T09:14:51;11.45;;;7.43;;
78169;SDS011;67412;49.892;14.490;2023-06-22T09:17:16;11.77;;;7.05;;
78169;SDS011;67412;49.892;14.490;2023-06-22T09:19:42;11.05;;;6.85;;
78169;SDS011;67412;49.892;14.490;2023-06-22T09:22:07;11.32;;;6.47;;
78169;SDS011;67412;49.892;14.490;2023-06-22T09:24:32;12.30;;;6.55;;
78169;SDS011;67412;49.892;14.490;2023-06-22T09:26:58;11.18;;;6.85;;
78169;SDS011;67412;49.892;14.490;2023-06-22T09:29:23;10.65;;;6.70;;
78169;SDS011;67412;49.892;14.490;2023-06-22T09:31:49;11.32;;;6.80;;
78169;SDS011;67412;49.892;14.490;2023-06-22T09:34:14;13.00;;;6.63;;
78169;SDS011;67412;49.892;14.490;2023-06-22T09:36:41;12.73;;;7.20;;
78169;SDS011;67412;49.892;14.490;2023-06-22T09:39:06;11.23;;;6.95;;
78169;SDS011;67412;49.892;14.490;2023-06-22T09:41:32;12.27;;;7.65;;
78169;SDS011;67412;49.892;14.490;2023-06-22T09:43:57;9.75;;;6.35;;
78169;SDS011;67412;49.892;14.490;2023-06-22T09:46:22;19.80;;;7.00;;
78169;SDS011;67412;49.892;14.490;2023-06-22T09:48:50;11.10;;;6.63;;
78169;SDS011;67412;49.892;14.490;2023-06-22T09:51:15;10.40;;;6.32;;
78169;SDS011;67412;49.892;14.490;2023-06-22T09:53:41;10.18;;;6.50;;
78169;SDS011;67412;49.892;14.490;2023-06-22T09:56:06;12.80;;;7.03;;
78169;SDS011;67412;49.892;14.490;2023-06-22T09:58:31;10.68;;;6.97;;
78169;SDS011;67412;49.892;14.490;2023-06-22T10:00:57;12.40;;;6.45;;
78169;SDS011;67412;49.892;14.490;2023-06-22T10:03:22;10.65;;;6.40;;
78169;SDS011;67412;49.892;14.490;2023-06-22T10:05:47;11.95;;;6.95;;
78169;SDS011;67412;49.892;14.490;2023-06-22T10:08:13;12.73;;;6.47;;
78169;SDS011;67412;49.892;14.490;2023-06-22T10:10:38;12.50;;;6.75;;
78169;SDS011;67412;49.892;14.490;2023-06-22T10:13:07;10.88;;;6.82;;
78169;SDS011;67412;49.892;14.490;2023-06-22T10:15:35;9.73;;;6.15;;
78169;SDS011;67412;49.892;14.490;2023-06-22T10:18:01;11.88;;;6.35;;
78169;SDS011;67412;49.892;14.490;2023-06-22T10:20:26;10.23;;;6.93;;
78169;SDS011;67412;49.892;14.490;2023-06-22T10:22:52;12.63;;;7.35;;
78169;SDS011;67412;49.892;14.490;2023-06-22T10:25:18;11.40;;;6.80;;
78169;SDS011;67412;49.892;14.490;2023-06-22T10:27:44;11.10;;;7.43;;
78169;SDS011;67412;49.892;14.490;2023-06-22T10:30:10;13.07;;;6.68;;
78169;SDS011;67412;49.892;14.490;2023-06-22T10:32:39;10.73;;;6.80;;
78169;SDS011;67412;49.892;14.490;2023-06-22T10:35:06;10.82;;;6.55;;
78169;SDS011;67412;49.892;14.490;2023-06-22T10:37:32;9.82;;;6.32;;
78169;SDS011;67412;49.892;14.490;2023-06-22T10:39:57;12.20;;;6.45;;
78169;SDS011;67412;49.892;14.490;2023-06-22T10:42:23;15.05;;;7.30;;
78169;SDS011;67412;49.892;14.490;2023-06-22T10:44:49;10.57;;;6.68;;
78169;SDS011;67412;49.892;14.490;2023-06-22T10:47:14;10.73;;;6.97;;
78169;SDS011;67412;49.892;14.490;2023-06-22T10:49:40;11.07;;;6.80;;
78169;SDS011;67412;49.892;14.490;2023-06-22T10:52:06;10.90;;;6.55;;
78169;SDS011;67412;49.892;14.490;2023-06-22T10:54:33;10.13;;;5.63;;
78169;SDS011;67412;49.892;14.490;2023-06-22T10:59:24;10.27;;;6.00;;
78169;SDS011;67412;49.892;14.490;2023-06-22T11:01:51;12.73;;;5.95;;
78169;SDS011;67412;49.892;14.490;2023-06-22T11:04:16;9.00;;;5.03;;
78169;SDS011;67412;49.892;14.490;2023-06-22T11:06:42;9.32;;;4.90;;
78169;SDS011;67412;49.892;14.490;2023-06-22T11:09:08;9.90;;;4.88;;
78169;SDS011;67412;49.892;14.490;2023-06-22T11:11:34;8.00;;;4.97;;
78169;SDS011;67412;49.892;14.490;2023-06-22T11:13:59;10.93;;;5.90;;
78169;SDS011;67412;49.892;14.490;2023-06-22T11:16:25;10.65;;;5.18;;
78169;SDS011;67412;49.892;14.490;2023-06-22T11:18:50;10.93;;;5.90;;
78169;SDS011;67412;49.892;14.490;2023-06-22T11:21:16;10.32;;;6.57;;
78169;SDS011;67412;49.892;14.490;2023-06-22T11:23:41;10.95;;;6.65;;
78169;SDS011;67412;49.892;14.490;2023-06-22T11:26:07;10.30;;;5.90;;
78169;SDS011;67412;49.892;14.490;2023-06-22T11:28:33;10.80;;;6.93;;
78169;SDS011;67412;49.892;14.490;2023-06-22T11:30:58;10.63;;;6.53;;
78169;SDS011;67412;49.892;14.490;2023-06-22T11:33:23;9.45;;;6.55;;
78169;SDS011;67412;49.892;14.490;2023-06-22T11:35:49;11.02;;;7.18;;
78169;SDS011;67412;49.892;14.490;2023-06-22T11:38:14;9.57;;;5.78;;
78169;SDS011;67412;49.892;14.490;2023-06-22T11:40:39;10.38;;;6.18;;
78169;SDS011;67412;49.892;14.490;2023-06-22T11:43:05;10.88;;;6.22;;
78169;SDS011;67412;49.892;14.490;2023-06-22T11:45:30;10.85;;;5.85;;
78169;SDS011;67412;49.892;14.490;2023-06-22T11:47:56;11.95;;;6.05;;
78169;SDS011;67412;49.892;14.490;2023-06-22T11:50:21;10.52;;;5.85;;
78169;SDS011;67412;49.892;14.490;2023-06-22T11:52:46;11.90;;;6.07;;
78169;SDS011;67412;49.892;14.490;2023-06-22T11:55:12;8.48;;;5.22;;
78169;SDS011;67412;49.892;14.490;2023-06-22T11:57:38;10.70;;;6.07;;
78169;SDS011;67412;49.892;14.490;2023-06-22T12:02:41;10.70;;;5.95;;
78169;SDS011;67412;49.892;14.490;2023-06-22T12:05:06;10.60;;;6.10;;
78169;SDS011;67412;49.892;14.490;2023-06-22T12:07:33;11.05;;;6.70;;
78169;SDS011;67412;49.892;14.490;2023-06-22T12:09:58;10.25;;;6.75;;
78169;SDS011;67412;49.892;14.490;2023-06-22T12:12:24;12.02;;;6.82;;
78169;SDS011;67412;49.892;14.490;2023-06-22T12:14:49;12.75;;;6.40;;
78169;SDS011;67412;49.892;14.490;2023-06-22T12:17:14;10.80;;;5.97;;
78169;SDS011;67412;49.892;14.490;2023-06-22T12:19:40;14.38;;;6.20;;
78169;SDS011;67412;49.892;14.490;2023-06-22T12:22:05;11.07;;;5.57;;
78169;SDS011;67412;49.892;14.490;2023-06-22T12:24:30;12.20;;;6.55;;
78169;SDS011;67412;49.892;14.490;2023-06-22T12:26:56;10.20;;;6.18;;
78169;SDS011;67412;49.892;14.490;2023-06-22T12:29:21;10.05;;;6.18;;
78169;SDS011;67412;49.892;14.490;2023-06-22T12:31:46;9.45;;;5.70;;
78169;SDS011;67412;49.892;14.490;2023-06-22T12:34:12;11.30;;;6.82;;
78169;SDS011;67412;49.892;14.490;2023-06-22T12:36:37;12.23;;;6.28;;
78169;SDS011;67412;49.892;14.490;2023-06-22T12:39:02;11.95;;;6.45;;
78169;SDS011;67412;49.892;14.490;2023-06-22T12:41:28;12.75;;;6.18;;
78169;SDS011;67412;49.892;14.490;2023-06-22T12:43:53;11.45;;;6.20;;
78169;SDS011;67412;49.892;14.490;2023-06-22T12:46:18;10.63;;;6.57;;
78169;SDS011;67412;49.892;14.490;2023-06-22T12:48:44;10.93;;;5.78;;
78169;SDS011;67412;49.892;14.490;2023-06-22T12:51:09;12.35;;;6.10;;
78169;SDS011;67412;49.892;14.490;2023-06-22T12:53:35;10.48;;;6.20;;
78169;SDS011;67412;49.892;14.490;2023-06-22T12:56:00;10.23;;;6.47;;
78169;SDS011;67412;49.892;14.490;2023-06-22T12:58:26;10.75;;;6.15;;
78169;SDS011;67412;49.892;14.490;2023-06-22T13:00:51;14.07;;;5.70;;
78169;SDS011;67412;49.892;14.490;2023-06-22T13:03:16;11.48;;;5.75;;
78169;SDS011;67412;49.892;14.490;2023-06-22T13:05:42;9.27;;;5.28;;
78169;SDS011;67412;49.892;14.490;2023-06-22T13:08:07;9.82;;;5.07;;
78169;SDS011;67412;49.892;14.490;2023-06-22T13:10:33;11.63;;;5.72;;
78169;SDS011;67412;49.892;14.490;2023-06-22T13:12:58;9.85;;;5.32;;
78169;SDS011;67412;49.892;14.490;2023-06-22T13:15:26;9.93;;;5.93;;
78169;SDS011;67412;49.892;14.490;2023-06-22T13:17:54;10.40;;;5.63;;
78169;SDS011;67412;49.892;14.490;2023-06-22T13:20:20;10.65;;;5.45;;
78169;SDS011;67412;49.892;14.490;2023-06-22T13:22:45;9.05;;;5.35;;
78169;SDS011;67412;49.892;14.490;2023-06-22T13:25:10;8.90;;;5.47;;
78169;SDS011;67412;49.892;14.490;2023-06-22T13:27:38;11.18;;;6.63;;
78169;SDS011;67412;49.892;14.490;2023-06-22T13:30:07;10.07;;;6.43;;
78169;SDS011;67412;49.892;14.490;2023-06-22T13:32:33;10.93;;;5.78;;
78169;SDS011;67412;49.892;14.490;2023-06-22T13:34:59;9.02;;;5.85;;
78169;SDS011;67412;49.892;14.490;2023-06-22T13:37:25;10.00;;;6.40;;
78169;SDS011;67412;49.892;14.490;2023-06-22T13:39:51;9.68;;;6.00;;
78169;SDS011;67412;49.892;14.490;2023-06-22T13:42:16;11.38;;;6.10;;
78169;SDS011;67412;49.892;14.490;2023-06-22T13:44:41;10.00;;;6.03;;
78169;SDS011;67412;49.892;14.490;2023-06-22T13:47:07;9.18;;;5.55;;
78169;SDS011;67412;49.892;14.490;2023-06-22T13:49:32;9.68;;;5.85;;
78169;SDS011;67412;49.892;14.490;2023-06-22T13:51:57;9.40;;;5.57;;
78169;SDS011;67412;49.892;14.490;2023-06-22T13:54:23;11.50;;;6.80;;
78169;SDS011;67412;49.892;14.490;2023-06-22T13:56:48;10.13;;;6.18;;
78169;SDS011;67412;49.892;14.490;2023-06-22T13:59:13;9.68;;;5.63;;
78169;SDS011;67412;49.892;14.490;2023-06-22T14:01:39;10.00;;;6.53;;
78169;SDS011;67412;49.892;14.490;2023-06-22T14:04:05;12.05;;;6.03;;
78169;SDS011;67412;49.892;14.490;2023-06-22T14:06:31;10.32;;;6.15;;
78169;SDS011;67412;49.892;14.490;2023-06-22T14:08:56;8.63;;;5.65;;
78169;SDS011;67412;49.892;14.490;2023-06-22T14:11:21;10.30;;;6.00;;
78169;SDS011;67412;49.892;14.490;2023-06-22T14:13:47;10.65;;;5.97;;
78169;SDS011;67412;49.892;14.490;2023-06-22T14:16:12;10.35;;;5.47;;
78169;SDS011;67412;49.892;14.490;2023-06-22T14:18:38;10.02;;;5.57;;
78169;SDS011;67412;49.892;14.490;2023-06-22T14:21:03;10.70;;;5.35;;
78169;SDS011;67412;49.892;14.490;2023-06-22T14:23:28;11.07;;;6.05;;
78169;SDS011;67412;49.892;14.490;2023-06-22T14:25:54;9.63;;;5.88;;
78169;SDS011;67412;49.892;14.490;2023-06-22T14:28:19;9.52;;;5.80;;